createdAt,value
2018-04-27T00:02:02.141Z,6.80
2018-04-27T00:04:35.909Z,6.80
2018-04-27T00:07:09.649Z,6.80
2018-04-27T00:09:43.266Z,6.80
2018-04-27T00:12:16.970Z,6.70
2018-04-27T00:14:50.723Z,6.70
2018-04-27T00:17:24.448Z,6.70
2018-04-27T00:19:58.962Z,6.70
2018-04-27T00:22:33.335Z,6.60
2018-04-27T00:25:06.901Z,6.70
2018-04-27T00:27:40.694Z,6.60
2018-04-27T00:30:14.436Z,6.60
2018-04-27T00:32:48.187Z,6.50
2018-04-27T00:35:21.953Z,6.50
2018-04-27T00:37:55.691Z,6.40
2018-04-27T00:40:29.414Z,6.30
2018-04-27T00:43:03.116Z,6.30
2018-04-27T00:45:36.944Z,6.30
2018-04-27T00:48:10.493Z,6.20
2018-04-27T00:50:44.264Z,6.10
2018-04-27T00:53:18.740Z,6.10
2018-04-27T00:55:52.373Z,6.10
2018-04-27T00:58:26.799Z,6.00
2018-04-27T01:01:00.436Z,6.00
2018-04-27T01:03:34.910Z,6.10
2018-04-27T01:06:08.663Z,6.00
2018-04-27T01:08:42.432Z,6.00
2018-04-27T01:11:16.199Z,6.00
2018-04-27T01:13:49.936Z,5.90
2018-04-27T01:16:24.461Z,5.70
2018-04-27T01:18:58.066Z,5.70
2018-04-27T01:21:31.808Z,5.60
2018-04-27T01:24:05.555Z,5.50
2018-04-27T01:26:39.799Z,5.40
2018-04-27T01:29:13.392Z,5.30
2018-04-27T01:31:47.904Z,5.20
2018-04-27T01:34:21.491Z,5.10
2018-04-27T01:36:55.242Z,5.00
2018-04-27T01:39:29.595Z,5.00
2018-04-27T01:42:04.036Z,4.90
2018-04-27T01:44:38.591Z,4.80
2018-04-27T01:47:12.657Z,4.80
2018-04-27T01:49:46.258Z,4.80
2018-04-27T01:52:19.966Z,4.90
2018-04-27T01:54:54.413Z,4.80
2018-04-27T01:57:29.214Z,4.70
2018-04-27T02:00:02.769Z,4.60
2018-04-27T02:02:40.002Z,4.50
2018-04-27T02:05:13.761Z,4.50
2018-04-27T02:07:49.418Z,4.50
2018-04-27T02:10:22.999Z,4.50
2018-04-27T02:12:57.483Z,4.40
2018-04-27T02:15:31.243Z,4.40
2018-04-27T02:18:05.688Z,4.40
2018-04-27T02:20:39.257Z,4.40
2018-04-27T02:23:13.742Z,4.40
2018-04-27T02:25:47.366Z,4.40
2018-04-27T02:28:21.112Z,4.40
2018-04-27T02:30:54.882Z,4.40
2018-04-27T02:33:28.543Z,4.40
2018-04-27T02:36:03.266Z,4.60
2018-04-27T02:38:36.828Z,4.70
2018-04-27T02:41:11.937Z,4.70
2018-04-27T02:43:45.660Z,4.80
2018-04-27T02:46:20.151Z,5.00
2018-04-27T02:48:54.553Z,5.10
2018-04-27T02:51:28.166Z,5.00
2018-04-27T02:54:02.687Z,5.10
2018-04-27T02:56:37.979Z,5.10
2018-04-27T02:59:11.524Z,5.10
2018-04-27T03:01:45.976Z,5.20
2018-04-27T03:04:19.579Z,5.20
2018-04-27T03:06:53.340Z,5.20
2018-04-27T03:09:27.112Z,5.20
2018-04-27T03:12:01.604Z,5.20
2018-04-27T03:14:35.176Z,5.20
2018-04-27T03:17:08.875Z,5.20
2018-04-27T03:19:42.631Z,5.20
2018-04-27T03:22:16.352Z,5.20
2018-04-27T03:24:50.929Z,5.20
2018-04-27T03:27:24.683Z,5.10
2018-04-27T03:29:58.463Z,5.10
2018-04-27T03:32:32.150Z,5.20
2018-04-27T03:35:06.791Z,5.20
2018-04-27T03:37:40.543Z,5.10
2018-04-27T03:40:14.267Z,5.10
2018-04-27T03:42:48.985Z,5.00
2018-04-27T03:45:22.718Z,5.00
2018-04-27T03:47:56.459Z,4.90
2018-04-27T03:50:30.027Z,4.90
2018-04-27T03:53:03.751Z,4.90
2018-04-27T03:55:37.443Z,4.90
2018-04-27T03:58:11.198Z,4.90
2018-04-27T04:00:56.642Z,4.90
2018-04-27T04:03:42.138Z,4.90
2018-04-27T04:06:15.899Z,4.90
2018-04-27T04:08:49.667Z,4.90
2018-04-27T04:11:23.439Z,5.00
2018-04-27T04:13:57.180Z,5.00
2018-04-27T04:16:30.956Z,5.10
2018-04-27T04:19:04.686Z,5.10
2018-04-27T04:21:38.462Z,5.20
2018-04-27T04:24:12.231Z,5.30
2018-04-27T04:26:45.995Z,5.40
2018-04-27T04:29:19.666Z,5.40
2018-04-27T04:31:53.474Z,5.50
2018-04-27T04:34:27.147Z,5.60
2018-04-27T04:37:00.959Z,5.60
2018-04-27T04:39:35.483Z,5.80
2018-04-27T04:42:09.259Z,5.80
2018-04-27T04:44:42.991Z,5.80
2018-04-27T04:47:17.069Z,5.90
2018-04-27T04:49:50.727Z,6.00
2018-04-27T04:52:24.520Z,6.00
2018-04-27T04:54:58.176Z,6.10
2018-04-27T04:57:32.682Z,6.20
2018-04-27T05:00:07.112Z,6.30
2018-04-27T05:02:40.906Z,6.30
2018-04-27T05:05:14.526Z,6.40
2018-04-27T05:07:48.235Z,6.40
2018-04-27T05:10:22.009Z,6.50
2018-04-27T05:12:55.764Z,6.50
2018-04-27T05:15:29.521Z,6.60
2018-04-27T05:18:16.774Z,6.60
2018-04-27T05:20:50.432Z,6.70
2018-04-27T05:23:24.179Z,6.70
2018-04-27T05:25:59.320Z,6.70
2018-04-27T05:28:33.018Z,6.70
2018-04-27T05:31:18.564Z,6.80
2018-04-27T05:33:53.047Z,6.80
2018-04-27T05:36:28.710Z,6.80
2018-04-27T05:39:02.416Z,6.80
2018-04-27T05:41:37.176Z,6.80
2018-04-27T05:44:11.337Z,6.80
2018-04-27T05:46:45.779Z,7.00
2018-04-27T05:49:20.448Z,6.90
2018-04-27T05:51:55.030Z,7.20
2018-04-27T05:54:29.641Z,7.20
2018-04-27T05:57:04.620Z,7.30
2018-04-27T05:59:38.988Z,7.30
2018-04-27T06:02:14.270Z,7.40
2018-04-27T06:04:48.760Z,7.50
2018-04-27T06:07:22.454Z,7.60
2018-04-27T06:09:56.199Z,7.70
2018-04-27T06:12:29.754Z,7.80
2018-04-27T06:15:04.963Z,7.90
2018-04-27T06:17:38.806Z,7.90
2018-04-27T06:20:16.603Z,8.00
2018-04-27T06:22:50.714Z,8.10
2018-04-27T06:28:03.252Z,8.30
2018-04-27T06:30:38.493Z,8.50
2018-04-27T06:33:12.149Z,8.50
2018-04-27T06:35:46.868Z,8.60
2018-04-27T06:38:20.443Z,8.80
2018-04-27T06:40:54.203Z,8.90
2018-04-27T06:43:27.742Z,9.10
2018-04-27T06:46:02.118Z,9.10
2018-04-27T06:48:35.879Z,9.30
2018-04-27T06:51:09.635Z,9.50
2018-04-27T06:53:44.051Z,9.60
2018-04-27T06:56:17.775Z,9.60
2018-04-27T06:58:53.597Z,9.70
2018-04-27T07:01:28.240Z,9.80
2018-04-27T07:04:07.264Z,9.90
2018-04-27T07:06:43.405Z,10.10
2018-04-27T07:09:17.060Z,10.20
2018-04-27T07:11:50.723Z,10.30
2018-04-27T07:14:24.672Z,10.40
2018-04-27T07:28:58.327Z,10.80
2018-04-27T07:31:32.784Z,10.90
2018-04-27T07:34:06.612Z,11.00
2018-04-27T07:36:40.150Z,11.10
2018-04-27T07:39:13.760Z,11.20
2018-04-27T07:41:48.312Z,11.20
2018-04-27T07:44:21.962Z,11.20
2018-04-27T07:46:55.759Z,11.30
2018-04-27T07:49:29.447Z,11.40
2018-04-27T07:52:03.024Z,11.50
2018-04-27T07:54:36.745Z,11.60
2018-04-27T07:57:10.419Z,11.80
2018-04-27T07:59:45.879Z,11.90
2018-04-27T08:02:19.565Z,11.90
2018-04-27T08:04:53.164Z,11.80
2018-04-27T08:07:27.970Z,11.80
2018-04-27T08:10:03.253Z,12.10
2018-04-27T08:12:36.831Z,12.00
2018-04-27T08:15:11.365Z,12.20
2018-04-27T08:17:45.132Z,12.20
2018-04-27T08:20:28.566Z,12.30
2018-04-27T08:23:02.161Z,12.40
2018-04-27T08:25:35.905Z,12.40
2018-04-27T08:28:09.670Z,12.50
2018-04-27T08:30:43.354Z,12.60
2018-04-27T08:33:17.096Z,12.40
2018-04-27T08:35:50.820Z,12.40
2018-04-27T08:38:25.389Z,12.60
2018-04-27T08:41:00.083Z,12.60
2018-04-27T08:43:33.820Z,12.50
2018-04-27T08:46:08.304Z,12.70
2018-04-27T08:48:42.560Z,12.60
2018-04-27T08:51:17.166Z,12.90
2018-04-27T08:53:52.515Z,13.00
2018-04-27T08:56:27.118Z,12.90
2018-04-27T08:59:00.726Z,13.10
2018-04-27T09:01:34.822Z,13.30
2018-04-27T09:04:09.381Z,13.20
2018-04-27T09:06:43.054Z,13.20
2018-04-27T09:09:16.741Z,13.40
2018-04-27T09:11:50.511Z,13.40
2018-04-27T09:14:25.316Z,13.50
2018-04-27T09:16:59.242Z,13.70
2018-04-27T09:19:34.856Z,13.80
2018-04-27T09:22:08.976Z,13.80
2018-04-27T09:24:42.558Z,14.00
2018-04-27T09:27:16.299Z,14.00
2018-04-27T09:29:50.773Z,13.70
2018-04-27T09:32:39.952Z,13.70
2018-04-27T09:35:15.028Z,14.00
2018-04-27T09:37:48.727Z,14.00
2018-04-27T09:40:22.271Z,14.20
2018-04-27T09:42:57.568Z,14.20
2018-04-27T09:45:31.215Z,14.20
2018-04-27T09:48:05.344Z,14.20
2018-04-27T09:50:39.284Z,14.60
2018-04-27T09:53:13.741Z,14.70
2018-04-27T09:55:48.202Z,15.00
2018-04-27T09:58:22.939Z,15.00
2018-04-27T10:00:57.255Z,15.50
2018-04-27T10:03:32.772Z,15.80
2018-04-27T10:06:08.129Z,15.70
2018-04-27T10:08:42.654Z,15.90
2018-04-27T10:11:16.774Z,16.10
2018-04-27T10:13:51.621Z,16.40
2018-04-27T10:16:25.648Z,16.70
2018-04-27T10:18:59.249Z,16.90
2018-04-27T10:21:33.911Z,17.00
2018-04-27T10:24:09.871Z,16.50
2018-04-27T10:26:43.639Z,16.60
2018-04-27T10:29:17.425Z,16.70
2018-04-27T10:31:51.088Z,16.60
2018-04-27T10:34:24.805Z,16.30
2018-04-27T10:36:58.571Z,16.40
2018-04-27T10:39:32.294Z,16.70
2018-04-27T10:42:06.066Z,17.10
2018-04-27T10:44:40.615Z,17.40
2018-04-27T10:47:15.820Z,17.20
2018-04-27T10:49:50.437Z,17.10
2018-04-27T10:52:26.648Z,17.20
2018-04-27T10:55:01.663Z,17.60
2018-04-27T10:57:36.083Z,18.20
2018-04-27T11:00:10.627Z,18.20
2018-04-27T11:02:45.111Z,18.50
2018-04-27T11:05:21.208Z,18.60
2018-04-27T11:07:54.965Z,18.80
2018-04-27T11:10:28.659Z,18.70
2018-04-27T11:13:03.084Z,18.70
2018-04-27T11:15:36.991Z,18.70
2018-04-27T11:18:10.827Z,17.80
2018-04-27T11:20:44.531Z,17.60
2018-04-27T11:23:18.316Z,17.80
2018-04-27T11:25:52.050Z,17.90
2018-04-27T11:28:25.819Z,18.20
2018-04-27T11:30:59.551Z,18.40
2018-04-27T11:33:34.074Z,18.40
2018-04-27T11:36:07.791Z,18.70
2018-04-27T11:38:41.395Z,19.10
2018-04-27T11:41:15.126Z,19.10
2018-04-27T11:43:48.735Z,19.20
2018-04-27T11:46:22.471Z,19.50
2018-04-27T11:48:56.277Z,19.30
2018-04-27T11:51:29.884Z,19.20
2018-04-27T11:54:04.294Z,19.00
2018-04-27T11:56:37.934Z,18.90
2018-04-27T11:59:11.647Z,18.80
2018-04-27T12:01:45.389Z,18.50
2018-04-27T12:04:19.032Z,18.90
2018-04-27T12:06:53.657Z,19.30
2018-04-27T12:09:28.219Z,19.80
2018-04-27T12:12:02.167Z,20.20
2018-04-27T12:14:35.936Z,20.70
2018-04-27T12:17:09.674Z,21.20
2018-04-27T12:19:44.903Z,21.50
2018-04-27T12:22:19.215Z,21.50
2018-04-27T12:24:53.814Z,21.20
2018-04-27T12:27:27.748Z,21.20
2018-04-27T12:30:02.551Z,20.90
2018-04-27T12:32:36.227Z,21.30
2018-04-27T12:35:10.012Z,22.20
2018-04-27T12:37:43.697Z,22.90
2018-04-27T12:40:17.401Z,23.10
2018-04-27T12:42:51.205Z,23.50
2018-04-27T12:45:25.016Z,23.60
2018-04-27T12:47:58.655Z,23.70
2018-04-27T12:50:33.324Z,23.40
2018-04-27T12:53:07.339Z,22.60
2018-04-27T12:55:41.853Z,22.30
2018-04-27T12:58:15.425Z,21.90
2018-04-27T13:00:49.175Z,21.60
2018-04-27T13:03:22.905Z,22.10
2018-04-27T13:05:56.499Z,22.40
2018-04-27T13:08:31.350Z,21.70
2018-04-27T13:11:05.670Z,24.20
2018-04-27T13:13:39.415Z,24.20
2018-04-27T13:16:13.079Z,25.10
2018-04-27T13:18:46.639Z,25.30
2018-04-27T13:21:20.275Z,24.70
2018-04-27T13:23:54.817Z,25.40
2018-04-27T13:26:28.567Z,26.10
2018-04-27T13:29:02.322Z,27.50
2018-04-27T13:31:36.065Z,27.60
2018-04-27T13:34:09.930Z,26.50
2018-04-27T13:36:43.716Z,26.70
2018-04-27T13:39:19.994Z,28.30
2018-04-27T13:41:54.528Z,27.80
2018-04-27T13:44:28.238Z,27.80
2018-04-27T13:47:01.963Z,27.90
2018-04-27T13:49:35.705Z,28.70
2018-04-27T13:52:09.427Z,28.30
2018-04-27T13:54:52.114Z,28.40
2018-04-27T13:57:26.019Z,29.80
2018-04-27T13:59:59.615Z,31.40
2018-04-27T14:02:33.380Z,31.80
2018-04-27T14:05:07.123Z,30.20
2018-04-27T14:07:51.447Z,29.20
2018-04-27T14:13:25.911Z,27.70
2018-04-27T14:15:59.683Z,27.70
2018-04-27T14:18:34.071Z,28.70
2018-04-27T14:21:07.696Z,28.70
2018-04-27T14:23:41.320Z,30.10
2018-04-27T14:26:15.088Z,31.00
2018-04-27T14:28:48.897Z,29.60
2018-04-27T14:31:22.600Z,30.90
2018-04-27T14:33:56.263Z,31.70
2018-04-27T14:36:30.065Z,31.80
2018-04-27T14:39:03.700Z,31.00
2018-04-27T14:41:38.202Z,27.60
2018-04-27T14:44:11.757Z,27.50
2018-04-27T14:46:45.440Z,26.90
2018-04-27T14:49:19.064Z,28.60
2018-04-27T14:51:52.765Z,30.30
2018-04-27T14:54:26.336Z,32.50
2018-04-27T14:57:00.062Z,33.00
2018-04-27T14:59:33.805Z,32.50
2018-04-27T15:02:07.455Z,31.70
2018-04-27T15:04:41.045Z,30.00
2018-04-27T15:07:15.603Z,28.70
2018-04-27T15:09:49.237Z,28.70
2018-04-27T15:12:22.962Z,28.40
2018-04-27T15:14:56.751Z,27.40
2018-04-27T15:17:30.385Z,26.60
2018-04-27T15:20:03.984Z,25.90
2018-04-27T15:22:38.315Z,25.10
2018-04-27T15:25:12.055Z,25.10
2018-04-27T15:27:45.816Z,24.70
2018-04-27T15:30:19.688Z,24.40
2018-04-27T15:32:53.430Z,24.00
2018-04-27T15:35:27.180Z,26.20
2018-04-27T15:38:01.657Z,26.10
2018-04-27T15:40:35.420Z,26.10
2018-04-27T15:43:08.951Z,25.80
2018-04-27T15:45:43.376Z,26.60
2018-04-27T15:48:17.893Z,25.90
2018-04-27T15:50:52.243Z,25.10
2018-04-27T15:53:25.843Z,25.10
2018-04-27T15:55:59.596Z,24.40
2018-04-27T15:58:33.193Z,23.70
2018-04-27T16:01:06.919Z,23.10
2018-04-27T16:03:40.692Z,22.70
2018-04-27T16:06:15.319Z,22.60
2018-04-27T16:08:49.086Z,23.20
2018-04-27T16:11:22.795Z,25.10
2018-04-27T16:13:57.940Z,28.30
2018-04-27T16:16:31.506Z,30.00
2018-04-27T16:19:05.175Z,28.60
2018-04-27T16:21:38.946Z,29.10
2018-04-27T16:24:12.722Z,29.30
2018-04-27T16:26:46.936Z,27.90
2018-04-27T16:29:21.277Z,27.60
2018-04-27T16:31:54.991Z,27.60
2018-04-27T16:34:28.727Z,29.30
2018-04-27T16:37:03.271Z,29.70
2018-04-27T16:39:37.673Z,29.50
2018-04-27T16:42:11.909Z,29.40
2018-04-27T16:44:46.477Z,27.30
2018-04-27T16:47:20.091Z,27.30
2018-04-27T16:49:54.641Z,26.70
2018-04-27T16:52:29.043Z,25.80
2018-04-27T16:55:03.552Z,24.80
2018-04-27T16:57:37.707Z,24.80
2018-04-27T17:00:11.411Z,24.10
2018-04-27T17:02:45.164Z,23.30
2018-04-27T17:05:24.176Z,22.70
2018-04-27T17:08:00.453Z,21.50
2018-04-27T17:10:34.497Z,21.50
2018-04-27T17:13:08.168Z,21.20
2018-04-27T17:15:42.868Z,21.00
2018-04-27T17:18:18.801Z,20.90
2018-04-27T17:20:53.255Z,20.80
2018-04-27T17:23:28.223Z,20.50
2018-04-27T17:26:02.743Z,20.20
2018-04-27T17:28:37.209Z,20.00
2018-04-27T17:31:11.427Z,19.70
2018-04-27T17:33:45.648Z,19.50
2018-04-27T17:36:19.611Z,19.20
2018-04-27T17:38:54.376Z,18.90
2018-04-27T17:41:28.122Z,18.50
2018-04-27T17:44:02.589Z,18.00
2018-04-27T17:46:36.357Z,17.70
2018-04-27T17:49:10.130Z,17.50
2018-04-27T17:51:44.702Z,17.10
2018-04-27T17:54:19.091Z,17.00
2018-04-27T17:56:52.747Z,17.00
2018-04-27T17:59:26.501Z,16.80
2018-04-27T18:02:00.194Z,16.60
2018-04-27T18:04:33.928Z,16.40
2018-04-27T18:07:07.680Z,16.20
2018-04-27T18:09:43.011Z,16.10
2018-04-27T18:12:16.797Z,16.00
2018-04-27T18:14:50.606Z,15.90
2018-04-27T18:17:24.392Z,15.80
2018-04-27T18:19:58.092Z,15.70
2018-04-27T18:22:34.032Z,15.60
2018-04-27T18:25:07.667Z,15.60
2018-04-27T18:27:41.359Z,15.40
2018-04-27T18:30:15.202Z,15.30
2018-04-27T18:32:48.767Z,15.20
2018-04-27T18:35:23.162Z,14.90
2018-04-27T18:37:56.898Z,14.90
2018-04-27T18:40:32.374Z,14.70
2018-04-27T18:43:06.794Z,14.60
2018-04-27T18:45:40.550Z,14.40
2018-04-27T18:48:16.698Z,14.30
2018-04-27T18:50:51.935Z,14.10
2018-04-27T18:53:26.884Z,14.00
2018-04-27T18:56:01.749Z,13.90
2018-04-27T18:58:36.394Z,13.70
2018-04-27T19:01:10.118Z,13.60
2018-04-27T19:03:44.308Z,13.50
2018-04-27T19:06:19.113Z,13.40
2018-04-27T19:08:52.653Z,13.30
2018-04-27T19:11:29.926Z,13.30
2018-04-27T19:14:06.484Z,13.20
2018-04-27T19:16:41.805Z,13.20
2018-04-27T19:19:18.950Z,13.10
2018-04-27T19:21:55.359Z,13.10
2018-04-27T19:24:28.906Z,13.00
2018-04-27T19:27:04.816Z,13.00
2018-04-27T19:29:40.660Z,12.90
2018-04-27T19:34:53.146Z,12.80
2018-04-27T19:37:28.071Z,12.70
2018-04-27T19:40:01.759Z,12.70
2018-04-27T19:42:35.440Z,12.60
2018-04-27T19:45:12.128Z,12.60
2018-04-27T19:47:46.291Z,12.60
2018-04-27T19:50:22.696Z,12.50
2018-04-27T19:52:57.311Z,12.40
2018-04-27T19:55:31.742Z,12.40
2018-04-27T19:58:06.208Z,12.30
2018-04-27T20:00:40.041Z,12.20
2018-04-27T20:03:14.342Z,12.10
2018-04-27T20:05:48.275Z,12.10
2018-04-27T20:08:23.362Z,12.00
2018-04-27T20:10:58.726Z,11.90
2018-04-27T20:13:33.274Z,11.90
2018-04-27T20:16:07.306Z,11.80
2018-04-27T20:18:41.906Z,11.70
2018-04-27T20:21:15.780Z,11.70
2018-04-27T20:23:50.199Z,11.70
2018-04-27T20:26:25.531Z,11.60
2018-04-27T20:29:07.802Z,11.60
2018-04-27T20:31:42.100Z,11.60
2018-04-27T20:34:15.692Z,11.50
2018-04-27T20:36:51.805Z,11.50
2018-04-27T20:39:27.828Z,11.40
2018-04-27T20:42:01.716Z,11.40
2018-04-27T20:44:36.449Z,11.40
2018-04-27T20:47:11.923Z,11.30
2018-04-27T20:49:46.780Z,11.30
2018-04-27T20:52:21.375Z,11.20
2018-04-27T20:54:56.947Z,11.10
2018-04-27T20:57:34.215Z,11.10
2018-04-27T21:00:12.273Z,11.00
2018-04-27T21:02:48.342Z,10.90
2018-04-27T21:05:24.794Z,10.90
2018-04-27T21:07:59.462Z,10.80
2018-04-27T21:10:33.171Z,10.80
2018-04-27T21:13:06.873Z,10.80
2018-04-27T21:15:41.431Z,10.70
2018-04-27T21:18:18.035Z,10.70
2018-04-27T21:20:52.289Z,10.70
2018-04-27T21:23:25.886Z,10.60
2018-04-27T21:26:02.407Z,10.60
2018-04-27T21:28:36.126Z,10.60
2018-04-27T21:31:11.760Z,10.60
2018-04-27T21:33:53.784Z,10.70
2018-04-27T21:36:28.586Z,10.60
2018-04-27T21:39:17.500Z,10.50
2018-04-27T21:42:13.855Z,10.50
2018-04-27T21:44:58.548Z,10.50
2018-04-27T21:47:48.703Z,10.40
2018-04-27T21:50:22.772Z,10.30
2018-04-27T21:52:59.236Z,10.30
2018-04-27T21:55:37.047Z,10.30
2018-04-27T21:58:10.717Z,10.30
2018-04-27T22:00:46.521Z,10.30
2018-04-27T22:03:23.624Z,10.30
2018-04-27T22:06:01.075Z,10.20
2018-04-27T22:08:46.186Z,10.10
2018-04-27T22:11:43.443Z,10.10
2018-04-27T22:14:33.652Z,10.00
2018-04-27T22:17:18.390Z,10.00
2018-04-27T22:19:55.882Z,9.90
2018-04-27T22:22:35.141Z,9.90
2018-04-27T22:28:38.367Z,9.70
2018-04-27T22:31:15.903Z,9.70
2018-04-27T22:33:53.872Z,9.70
2018-04-27T22:36:35.663Z,9.70
2018-04-27T22:39:27.671Z,9.60
2018-04-27T22:45:08.242Z,9.50
2018-04-27T22:47:57.058Z,9.40
2018-04-27T22:50:34.378Z,9.40
2018-04-27T22:53:09.348Z,9.30
2018-04-27T22:55:43.765Z,9.20
2018-04-27T22:58:18.787Z,9.20
2018-04-27T23:00:56.959Z,9.10
2018-04-27T23:03:31.780Z,9.10
2018-04-27T23:06:16.764Z,9.10
2018-04-27T23:08:51.965Z,9.20
2018-04-27T23:11:27.517Z,9.20
2018-04-27T23:14:10.597Z,9.20
2018-04-27T23:16:50.352Z,9.30
2018-04-27T23:19:32.991Z,9.40
2018-04-27T23:22:43.105Z,9.40
2018-04-27T23:25:35.176Z,9.40
2018-04-27T23:28:09.535Z,9.40
2018-04-27T23:30:43.402Z,9.30
2018-04-27T23:33:19.491Z,9.30
2018-04-27T23:35:57.773Z,9.40
2018-04-27T23:38:31.435Z,9.40
2018-04-27T23:41:07.473Z,9.30
2018-04-27T23:43:43.536Z,9.30
2018-04-27T23:46:23.982Z,9.40
2018-04-27T23:49:00.173Z,9.30
2018-04-27T23:51:35.873Z,9.30
2018-04-27T23:54:11.182Z,9.30
2018-04-27T23:56:47.548Z,9.30
2018-04-27T23:59:34.497Z,9.20
